Busk, Ukraine
Current Conditions -  °F | °C
As of 3:00 PM on Tuesday 27 Jan 2015 (Local Time) from UKLL Reporting Station
Broken Clouds Broken Clouds  
Wind Chill: 30°   Ceiling: 3000
Heat Index: 36°   Visibility: 6mi
Dew Point: 30°   Wind: 7mph
Humidity: 81%   Direction: 220°SW
Pressure: 29.91"   Gusts: NA
Location:  49.97°N, 24.63°E
Report Text: UKLL 271200Z 22003MPS 200V260 9999 BKN030 02/M01 Q1013 31120070 NOSIG
Loading
Personal Weather Stations






























Interactive Weather Map New forecast layout! Learn more

10-Day Weather Forecast

Advertisements
Track Severe Weather on mobile